Time;durP1;ratioP1;P1;durP2;ratioP2;P2;SDS_P1;SDS_P2;PMS_P1;PMS_P2;Temp;Humidity;BMP_temperature;BMP_pressure;BME280_temperature;BME280_humidity;BME280_pressure;Samples;Min_cycle;Max_cycle;Signal;HPM_P1;HPM_P2
2023/08/29 00:00:29;;;;;;;4.17;1.30;;;;;;;;;;6180163;23;20440;-43
2023/08/29 00:02:56;;;;;;;7.20;1.85;;;;;;;;;;6182889;23;20017;-42
2023/08/29 00:05:27;;;;;;;5.28;1.50;;;;;;;;;;6187307;23;20035;-42
2023/08/29 00:07:56;;;;;;;6.13;1.42;;;;;;;;;;6185377;23;20036;-42
2023/08/29 00:10:24;;;;;;;7.00;1.42;;;;;;;;;;6174867;23;20020;-47
2023/08/29 00:12:53;;;;;;;6.30;1.60;;;;;;;;;;6177640;23;20016;-42
2023/08/29 00:15:21;;;;;;;5.43;1.63;;;;;;;;;;6182865;23;20306;-42
2023/08/29 00:17:50;;;;;;;6.63;1.50;;;;;;;;;;6186648;23;20021;-45
2023/08/29 00:20:19;;;;;;;6.97;1.35;;;;;;;;;;6186058;23;20012;-43
2023/08/29 00:22:47;;;;;;;4.82;1.42;;;;;;;;;;6188637;23;20016;-42
2023/08/29 00:25:15;;;;;;;5.13;1.43;;;;;;;;;;6179758;23;20026;-41
2023/08/29 00:27:44;;;;;;;6.65;1.40;;;;;;;;;;6183846;23;20092;-42
2023/08/29 00:30:13;;;;;;;7.65;1.42;;;;;;;;;;6171210;23;20079;-42
2023/08/29 00:32:41;;;;;;;6.22;1.48;;;;;;;;;;6187231;23;20017;-41
2023/08/29 00:35:10;;;;;;;5.00;1.23;;;;;;;;;;6178834;23;20027;-43
2023/08/29 00:37:40;;;;;;;4.70;1.10;;;;;;;;;;6184949;23;20020;-43
2023/08/29 00:40:09;;;;;;;6.22;1.42;;;;;;;;;;6187177;23;20029;-43
2023/08/29 00:42:38;;;;;;;4.43;1.00;;;;;;;;;;6171337;23;20017;-42
2023/08/29 00:45:07;;;;;;;4.70;1.27;;;;;;;;;;6186876;23;20339;-42
2023/08/29 00:47:35;;;;;;;5.88;1.30;;;;;;;;;;6176569;23;20017;-42
2023/08/29 00:50:03;;;;;;;3.97;1.17;;;;;;;;;;6186951;23;20116;-41
2023/08/29 00:52:32;;;;;;;6.70;1.48;;;;;;;;;;6177314;23;20031;-42
2023/08/29 00:55:00;;;;;;;5.25;1.40;;;;;;;;;;6188913;23;20021;-42
2023/08/29 00:57:28;;;;;;;7.97;1.30;;;;;;;;;;6183712;23;20019;-42
2023/08/29 00:59:57;;;;;;;5.32;1.23;;;;;;;;;;6189168;23;20020;-42
2023/08/29 01:02:25;;;;;;;5.43;1.27;;;;;;;;;;6176418;23;20023;-41
2023/08/29 01:04:54;;;;;;;4.80;0.90;;;;;;;;;;6189554;23;20598;-42
2023/08/29 01:07:23;;;;;;;5.68;1.23;;;;;;;;;;6181819;23;20090;-40
2023/08/29 01:09:51;;;;;;;6.50;1.17;;;;;;;;;;6187063;23;20028;-40
2023/08/29 01:12:19;;;;;;;4.63;1.10;;;;;;;;;;6182698;23;20043;-40
2023/08/29 01:14:50;;;;;;;9.63;1.90;;;;;;;;;;6183580;23;20016;-40
2023/08/29 01:17:22;;;;;;;7.78;1.35;;;;;;;;;;6184223;23;20059;-40
2023/08/29 01:19:52;;;;;;;7.35;1.80;;;;;;;;;;6177958;23;20340;-41
2023/08/29 01:22:26;;;;;;;5.50;0.93;;;;;;;;;;6190990;23;20020;-41
2023/08/29 01:24:58;;;;;;;5.80;0.93;;;;;;;;;;6177769;23;20047;-40
2023/08/29 01:27:28;;;;;;;4.13;1.00;;;;;;;;;;6192353;23;20013;-41
2023/08/29 01:29:57;;;;;;;4.68;1.02;;;;;;;;;;6179276;23;20362;-41
2023/08/29 01:32:25;;;;;;;7.43;0.90;;;;;;;;;;6168290;23;20075;-41
2023/08/29 01:34:52;;;;;;;3.67;0.80;;;;;;;;;;6188898;23;20021;-41
2023/08/29 01:37:21;;;;;;;4.63;1.13;;;;;;;;;;6191354;23;20016;-41
2023/08/29 01:39:48;;;;;;;4.37;1.30;;;;;;;;;;6175746;23;20025;-41
2023/08/29 01:42:16;;;;;;;5.35;1.42;;;;;;;;;;6187051;23;20013;-41
2023/08/29 01:44:46;;;;;;;5.13;1.23;;;;;;;;;;6191421;23;20032;-42
2023/08/29 01:47:14;;;;;;;4.85;1.10;;;;;;;;;;6183410;23;20513;-41
2023/08/29 01:49:43;;;;;;;6.53;1.45;;;;;;;;;;6187934;23;20024;-41
2023/08/29 01:52:11;;;;;;;5.27;1.20;;;;;;;;;;6182843;23;20016;-41
2023/08/29 01:54:39;;;;;;;6.15;1.30;;;;;;;;;;6189505;23;20017;-41
2023/08/29 01:57:09;;;;;;;5.68;1.10;;;;;;;;;;6187285;23;21048;-42
2023/08/29 01:59:37;;;;;;;4.63;1.25;;;;;;;;;;6189914;23;20013;-41
2023/08/29 02:02:08;;;;;;;4.78;1.05;;;;;;;;;;6190400;23;20575;-41
2023/08/29 02:04:34;;;;;;;7.00;1.10;;;;;;;;;;6186933;23;20016;-42
2023/08/29 02:07:03;;;;;;;4.85;1.30;;;;;;;;;;6192797;23;20055;-41
2023/08/29 02:09:32;;;;;;;4.65;1.00;;;;;;;;;;6183155;23;20012;-42
2023/08/29 02:11:59;;;;;;;4.85;1.70;;;;;;;;;;6194406;23;20016;-41
2023/08/29 02:14:27;;;;;;;4.72;1.40;;;;;;;;;;6184358;23;20020;-41
2023/08/29 02:16:56;;;;;;;5.20;1.20;;;;;;;;;;6189888;23;20652;-41
2023/08/29 02:19:26;;;;;;;5.53;0.90;;;;;;;;;;6183641;23;20494;-41
2023/08/29 02:21:54;;;;;;;4.35;1.13;;;;;;;;;;6166120;23;20239;-41
2023/08/29 02:24:24;;;;;;;4.47;1.00;;;;;;;;;;6191872;23;20403;-43
2023/08/29 02:26:52;;;;;;;5.68;1.40;;;;;;;;;;6193419;23;20016;-41
2023/08/29 02:29:20;;;;;;;5.00;1.30;;;;;;;;;;6183850;23;20023;-41
2023/08/29 02:31:49;;;;;;;6.28;1.35;;;;;;;;;;6179825;23;20020;-42
2023/08/29 02:34:17;;;;;;;4.60;0.98;;;;;;;;;;6194401;23;20020;-41
2023/08/29 02:36:47;;;;;;;5.00;1.00;;;;;;;;;;6182248;23;20066;-42
2023/08/29 02:39:15;;;;;;;5.47;0.95;;;;;;;;;;6190133;23;20500;-41
2023/08/29 02:41:42;;;;;;;6.20;1.20;;;;;;;;;;6178426;23;20063;-41
2023/08/29 02:44:10;;;;;;;4.32;1.30;;;;;;;;;;6187598;23;20016;-43
2023/08/29 02:46:38;;;;;;;5.65;1.30;;;;;;;;;;6185563;23;20385;-41
2023/08/29 02:49:06;;;;;;;5.22;1.10;;;;;;;;;;6191113;23;20017;-41
2023/08/29 02:51:35;;;;;;;3.78;1.00;;;;;;;;;;6181864;23;20024;-41
2023/08/29 02:54:04;;;;;;;4.37;0.93;;;;;;;;;;6192821;23;20017;-44
2023/08/29 02:56:31;;;;;;;6.03;1.10;;;;;;;;;;6192202;23;20020;-42
2023/08/29 02:59:00;;;;;;;4.60;1.02;;;;;;;;;;6193557;23;20020;-43
2023/08/29 03:01:29;;;;;;;4.85;1.35;;;;;;;;;;6188545;23;20017;-41
2023/08/29 03:03:58;;;;;;;4.05;1.20;;;;;;;;;;6187448;23;20027;-41
2023/08/29 03:06:26;;;;;;;4.27;0.87;;;;;;;;;;6188832;23;20017;-41
2023/08/29 03:08:54;;;;;;;6.38;1.33;;;;;;;;;;6180507;23;20024;-42
2023/08/29 03:11:23;;;;;;;4.38;1.20;;;;;;;;;;6192588;23;20071;-42
2023/08/29 03:13:51;;;;;;;4.50;1.50;;;;;;;;;;6175819;23;20374;-42
2023/08/29 03:16:20;;;;;;;6.63;1.30;;;;;;;;;;6196421;23;20024;-42
2023/08/29 03:18:50;;;;;;;7.03;1.47;;;;;;;;;;6157798;23;20440;-41
2023/08/29 03:21:18;;;;;;;6.45;1.50;;;;;;;;;;6196959;23;20070;-41
2023/08/29 03:23:46;;;;;;;5.72;1.10;;;;;;;;;;6182845;23;20023;-44
2023/08/29 03:26:13;;;;;;;4.15;1.02;;;;;;;;;;6180123;23;20023;-42
2023/08/29 03:28:43;;;;;;;4.30;0.85;;;;;;;;;;6189129;23;20012;-42
2023/08/29 03:31:11;;;;;;;5.93;1.47;;;;;;;;;;6187525;23;20020;-41
2023/08/29 03:33:39;;;;;;;6.00;1.48;;;;;;;;;;6167104;23;20438;-41
2023/08/29 03:36:25;;;;;;;4.82;1.17;;;;;;;;;;6197554;23;20028;-41
2023/08/29 03:38:53;;;;;;;5.45;1.20;;;;;;;;;;6187964;23;20428;-41
2023/08/29 03:41:21;;;;;;;6.20;1.00;;;;;;;;;;6187471;23;20041;-41
2023/08/29 03:43:51;;;;;;;5.23;1.30;;;;;;;;;;6174336;23;20689;-41
2023/08/29 03:46:21;;;;;;;3.88;1.15;;;;;;;;;;6195119;23;20013;-41
2023/08/29 03:48:49;;;;;;;5.38;1.17;;;;;;;;;;6178384;23;20017;-41
2023/08/29 03:51:17;;;;;;;6.57;1.60;;;;;;;;;;6192389;23;20397;-41
2023/08/29 03:54:03;;;;;;;4.75;1.15;;;;;;;;;;6181765;23;20420;-41
2023/08/29 03:56:33;;;;;;;5.17;1.40;;;;;;;;;;6190892;23;20021;-41
2023/08/29 03:59:04;;;;;;;4.88;1.55;;;;;;;;;;6183407;23;20021;-41
2023/08/29 04:01:32;;;;;;;5.63;1.42;;;;;;;;;;6166721;23;20491;-41
2023/08/29 04:04:00;;;;;;;6.18;1.30;;;;;;;;;;6194612;23;20023;-41
2023/08/29 04:06:32;;;;;;;4.63;1.25;;;;;;;;;;6187206;23;20653;-41
2023/08/29 04:08:59;;;;;;;5.43;1.33;;;;;;;;;;6195265;23;20440;-41
2023/08/29 04:11:28;;;;;;;4.40;1.20;;;;;;;;;;6173975;23;20465;-41
2023/08/29 04:13:56;;;;;;;5.95;1.10;;;;;;;;;;6193580;23;20024;-42
2023/08/29 04:16:25;;;;;;;4.38;1.20;;;;;;;;;;6185526;23;20020;-44
2023/08/29 04:18:54;;;;;;;4.57;1.48;;;;;;;;;;6194091;23;20458;-41
2023/08/29 04:21:22;;;;;;;5.30;1.10;;;;;;;;;;6184742;23;20016;-41
2023/08/29 04:23:49;;;;;;;5.38;0.98;;;;;;;;;;6189028;23;20351;-41
2023/08/29 04:26:21;;;;;;;6.28;1.23;;;;;;;;;;6183883;23;20027;-41
2023/08/29 04:28:50;;;;;;;6.95;1.38;;;;;;;;;;6193547;23;20047;-41
2023/08/29 04:31:19;;;;;;;6.63;1.50;;;;;;;;;;6184159;23;20428;-42
2023/08/29 04:33:49;;;;;;;4.87;1.10;;;;;;;;;;6189808;23;20229;-41
2023/08/29 04:36:17;;;;;;;8.13;1.10;;;;;;;;;;6191476;23;20033;-41
2023/08/29 04:38:47;;;;;;;5.80;1.42;;;;;;;;;;6183754;23;20024;-41
2023/08/29 04:41:15;;;;;;;4.20;1.00;;;;;;;;;;6191845;23;20321;-41
2023/08/29 04:43:43;;;;;;;4.90;0.98;;;;;;;;;;6185824;23;20024;-42
2023/08/29 04:46:11;;;;;;;8.00;1.40;;;;;;;;;;6194078;23;20017;-42
2023/08/29 04:48:40;;;;;;;6.43;1.00;;;;;;;;;;6181063;23;20040;-42
2023/08/29 04:51:10;;;;;;;5.32;1.38;;;;;;;;;;6190056;23;20013;-42
2023/08/29 04:53:41;;;;;;;6.10;1.40;;;;;;;;;;6189638;23;20510;-43
2023/08/29 04:56:09;;;;;;;5.18;1.30;;;;;;;;;;6176162;23;20013;-43
2023/08/29 04:58:36;;;;;;;4.53;1.30;;;;;;;;;;6189291;23;20028;-42
2023/08/29 05:01:04;;;;;;;5.30;1.17;;;;;;;;;;6173988;23;20021;-41
2023/08/29 05:03:34;;;;;;;4.60;1.13;;;;;;;;;;6187779;23;20021;-41
2023/08/29 05:06:02;;;;;;;6.38;1.30;;;;;;;;;;6179149;23;20087;-44
2023/08/29 05:08:34;;;;;;;4.88;1.50;;;;;;;;;;6189243;23;20055;-41
2023/08/29 05:11:03;;;;;;;4.77;1.27;;;;;;;;;;6166976;23;20443;-41
2023/08/29 05:13:32;;;;;;;4.82;1.33;;;;;;;;;;6190075;23;20023;-41
2023/08/29 05:16:00;;;;;;;5.10;1.30;;;;;;;;;;6175390;23;20040;-41
2023/08/29 05:18:28;;;;;;;4.25;1.10;;;;;;;;;;6186461;23;20017;-41
2023/08/29 05:20:59;;;;;;;6.95;1.45;;;;;;;;;;6182139;23;20492;-41
2023/08/29 05:23:27;;;;;;;5.37;1.47;;;;;;;;;;6189567;23;20017;-41
2023/08/29 05:25:59;;;;;;;5.50;1.05;;;;;;;;;;6170476;23;20127;-43
2023/08/29 05:28:26;;;;;;;5.47;1.48;;;;;;;;;;6183110;23;20023;-44
2023/08/29 05:30:54;;;;;;;4.95;1.58;;;;;;;;;;6191664;23;20013;-42
2023/08/29 05:33:23;;;;;;;4.63;1.40;;;;;;;;;;6178277;23;20017;-41
2023/08/29 05:35:51;;;;;;;6.97;1.30;;;;;;;;;;6184358;23;20404;-41
2023/08/29 05:38:25;;;;;;;6.53;1.52;;;;;;;;;;6190291;23;20021;-45
2023/08/29 05:40:53;;;;;;;4.43;1.50;;;;;;;;;;6181545;23;20020;-43
2023/08/29 05:43:22;;;;;;;5.65;1.05;;;;;;;;;;6175202;23;20021;-42
2023/08/29 05:45:50;;;;;;;5.28;1.70;;;;;;;;;;6191620;23;20023;-42
2023/08/29 05:48:18;;;;;;;5.10;1.43;;;;;;;;;;6181246;23;20080;-42
2023/08/29 05:50:45;;;;;;;4.80;1.35;;;;;;;;;;6187325;23;20013;-41
2023/08/29 05:53:13;;;;;;;7.45;1.60;;;;;;;;;;6188908;23;20336;-41
2023/08/29 05:55:41;;;;;;;4.47;1.13;;;;;;;;;;6186124;23;20066;-41
2023/08/29 05:58:09;;;;;;;5.00;1.30;;;;;;;;;;6185085;23;20027;-41
2023/08/29 06:00:38;;;;;;;5.87;1.63;;;;;;;;;;6183818;23;20063;-42
2023/08/29 06:03:07;;;;;;;6.68;1.52;;;;;;;;;;6178156;23;20017;-41
2023/08/29 06:05:36;;;;;;;5.28;1.40;;;;;;;;;;6177734;23;20012;-42
2023/08/29 06:08:04;;;;;;;9.75;1.75;;;;;;;;;;6191672;23;20019;-41
2023/08/29 06:10:46;;;;;;;6.13;1.83;;;;;;;;;;6175298;23;20012;-43
2023/08/29 06:13:15;;;;;;;4.93;1.57;;;;;;;;;;6182719;23;20099;-41
2023/08/29 06:15:44;;;;;;;7.13;1.50;;;;;;;;;;6187017;23;20013;-43
2023/08/29 06:18:12;;;;;;;6.13;1.35;;;;;;;;;;6188346;23;20203;-42
2023/08/29 06:20:40;;;;;;;5.07;1.58;;;;;;;;;;6185229;23;20044;-42
2023/08/29 06:23:09;;;;;;;6.07;1.45;;;;;;;;;;6183804;23;20021;-42
2023/08/29 06:25:36;;;;;;;6.03;1.63;;;;;;;;;;6171891;23;20031;-42
2023/08/29 06:28:05;;;;;;;7.00;1.48;;;;;;;;;;6181642;23;20040;-42
2023/08/29 06:30:34;;;;;;;5.13;1.13;;;;;;;;;;6185275;23;20071;-44
2023/08/29 06:33:06;;;;;;;4.70;1.20;;;;;;;;;;6187018;23;20083;-42
2023/08/29 06:35:35;;;;;;;4.50;1.38;;;;;;;;;;6180981;23;20095;-42
2023/08/29 06:38:03;;;;;;;4.77;1.20;;;;;;;;;;6186281;23;20023;-41
2023/08/29 06:40:33;;;;;;;5.25;1.30;;;;;;;;;;6179189;23;20048;-42
2023/08/29 06:43:02;;;;;;;3.75;1.05;;;;;;;;;;6187128;23;20448;-41
2023/08/29 06:45:30;;;;;;;4.75;1.40;;;;;;;;;;6178874;23;20020;-42
2023/08/29 06:47:57;;;;;;;4.20;1.02;;;;;;;;;;6188140;23;20023;-44
2023/08/29 06:50:27;;;;;;;5.23;1.60;;;;;;;;;;6181320;23;20391;-42
2023/08/29 06:52:56;;;;;;;4.20;1.08;;;;;;;;;;6187085;23;20021;-42
2023/08/29 06:55:24;;;;;;;4.45;1.00;;;;;;;;;;6190889;23;20013;-42
2023/08/29 06:57:52;;;;;;;4.35;1.40;;;;;;;;;;6179818;23;20052;-41
2023/08/29 07:00:22;;;;;;;4.15;0.77;;;;;;;;;;6190176;23;20021;-41
2023/08/29 07:02:50;;;;;;;6.33;1.20;;;;;;;;;;6176342;23;20513;-42
2023/08/29 07:05:19;;;;;;;4.85;1.27;;;;;;;;;;6186426;23;20025;-43
2023/08/29 07:07:49;;;;;;;5.35;1.17;;;;;;;;;;6177163;23;20369;-44
2023/08/29 07:10:17;;;;;;;4.82;1.20;;;;;;;;;;6192210;23;20336;-42
2023/08/29 07:12:45;;;;;;;5.68;1.13;;;;;;;;;;6171611;23;20522;-44
2023/08/29 07:15:13;;;;;;;5.57;1.13;;;;;;;;;;6188636;23;20016;-43
2023/08/29 07:17:41;;;;;;;4.97;1.48;;;;;;;;;;6175997;23;20020;-42
2023/08/29 07:20:11;;;;;;;4.03;1.23;;;;;;;;;;6185939;23;20112;-42
2023/08/29 07:22:42;;;;;;;5.68;1.20;;;;;;;;;;6174193;23;20428;-42
2023/08/29 07:25:12;;;;;;;4.30;1.20;;;;;;;;;;6185959;23;20036;-43
2023/08/29 07:27:40;;;;;;;5.93;1.40;;;;;;;;;;6179509;23;20024;-41
2023/08/29 07:30:10;;;;;;;4.80;1.38;;;;;;;;;;6181362;23;20091;-42
2023/08/29 07:32:40;;;;;;;7.32;1.00;;;;;;;;;;6184131;23;20023;-44
2023/08/29 07:35:09;;;;;;;5.05;1.30;;;;;;;;;;6179976;23;20247;-41
2023/08/29 07:37:36;;;;;;;6.25;1.00;;;;;;;;;;6182015;23;20020;-42
2023/08/29 07:40:06;;;;;;;5.33;1.23;;;;;;;;;;6176628;23;20027;-45
2023/08/29 07:42:37;;;;;;;5.63;1.33;;;;;;;;;;6178227;23;20444;-42
2023/08/29 07:45:06;;;;;;;4.88;1.25;;;;;;;;;;6171586;23;20451;-43
2023/08/29 07:47:34;;;;;;;6.03;1.42;;;;;;;;;;6168229;23;20027;-42
2023/08/29 07:50:02;;;;;;;4.80;1.60;;;;;;;;;;6152340;23;20096;-42
2023/08/29 07:52:31;;;;;;;4.80;1.70;;;;;;;;;;6165367;23;20074;-42
2023/08/29 07:55:01;;;;;;;5.55;1.58;;;;;;;;;;6143092;23;20075;-44
2023/08/29 07:57:29;;;;;;;24.88;4.78;;;;;;;;;;6161858;23;20518;-42
2023/08/29 08:00:00;;;;;;;5.75;1.90;;;;;;;;;;6171709;23;20017;-42
2023/08/29 08:02:28;;;;;;;10.23;1.92;;;;;;;;;;6173006;23;20043;-42
2023/08/29 08:04:56;;;;;;;6.57;2.03;;;;;;;;;;6168753;23;20047;-42
2023/08/29 08:07:24;;;;;;;6.15;1.88;;;;;;;;;;6167507;23;20467;-42
2023/08/29 08:09:52;;;;;;;6.30;1.90;;;;;;;;;;6167308;23;20020;-42
2023/08/29 08:12:20;;;;;;;6.43;2.17;;;;;;;;;;6164900;23;20067;-44
2023/08/29 08:14:47;;;;;;;6.20;2.50;;;;;;;;;;6167543;23;20028;-42
2023/08/29 08:17:16;;;;;;;7.43;2.83;;;;;;;;;;6156750;23;20021;-42
2023/08/29 08:19:44;;;;;;;6.88;2.40;;;;;;;;;;6157531;23;20023;-42
2023/08/29 08:22:14;;;;;;;5.85;2.28;;;;;;;;;;6163037;23;20025;-42
2023/08/29 08:24:42;;;;;;;7.03;2.78;;;;;;;;;;6152983;23;20028;-43
2023/08/29 08:27:10;;;;;;;7.85;3.10;;;;;;;;;;6163848;23;20124;-42
2023/08/29 08:29:38;;;;;;;7.30;3.03;;;;;;;;;;6152471;23;20013;-42
2023/08/29 08:32:06;;;;;;;7.22;2.55;;;;;;;;;;6133025;23;20075;-43
2023/08/29 08:34:35;;;;;;;8.20;2.63;;;;;;;;;;6140508;23;20017;-43
2023/08/29 08:37:03;;;;;;;8.88;3.85;;;;;;;;;;6173759;23;20024;-44
2023/08/29 08:39:31;;;;;;;7.45;2.67;;;;;;;;;;6177252;23;20036;-42
2023/08/29 08:41:59;;;;;;;8.30;3.03;;;;;;;;;;6169795;23;20012;-43
2023/08/29 08:44:27;;;;;;;10.30;3.70;;;;;;;;;;6190003;23;20013;-42
2023/08/29 08:46:55;;;;;;;8.77;3.63;;;;;;;;;;6158292;23;20021;-42
2023/08/29 08:49:23;;;;;;;9.88;3.63;;;;;;;;;;6165366;23;20016;-42
2023/08/29 08:51:53;;;;;;;12.80;3.88;;;;;;;;;;6158349;23;20016;-42
2023/08/29 08:54:21;;;;;;;10.23;3.87;;;;;;;;;;6154763;23;20063;-43
2023/08/29 08:56:49;;;;;;;11.13;3.97;;;;;;;;;;6157785;23;20020;-43
2023/08/29 08:59:18;;;;;;;13.15;4.20;;;;;;;;;;6162407;23;20475;-42
2023/08/29 09:01:46;;;;;;;10.50;4.07;;;;;;;;;;6162556;23;20435;-42
2023/08/29 09:04:14;;;;;;;12.10;4.57;;;;;;;;;;6129773;23;20055;-44
2023/08/29 09:06:42;;;;;;;9.93;4.20;;;;;;;;;;6162448;23;20044;-42
2023/08/29 09:09:17;;;;;;;11.23;4.50;;;;;;;;;;6172172;23;20024;-44
2023/08/29 09:11:51;;;;;;;10.68;4.28;;;;;;;;;;6172287;23;20063;-41
2023/08/29 09:14:24;;;;;;;10.70;4.32;;;;;;;;;;6169597;23;20021;-43
2023/08/29 09:16:56;;;;;;;12.90;3.42;;;;;;;;;;6160883;23;20044;-43
2023/08/29 09:19:24;;;;;;;11.33;3.93;;;;;;;;;;6147862;23;20377;-42
2023/08/29 09:21:52;;;;;;;11.52;4.45;;;;;;;;;;6178596;23;20141;-42
2023/08/29 09:24:32;;;;;;;9.50;3.75;;;;;;;;;;6172031;23;20073;-42
2023/08/29 09:27:08;;;;;;;9.32;4.53;;;;;;;;;;6178779;23;20031;-46
2023/08/29 09:29:37;;;;;;;13.02;4.60;;;;;;;;;;6158237;23;20020;-44
2023/08/29 09:32:11;;;;;;;10.10;3.90;;;;;;;;;;6164118;23;20092;-50
2023/08/29 09:34:39;;;;;;;9.50;3.92;;;;;;;;;;6148809;23;20021;-42
2023/08/29 09:37:07;;;;;;;10.82;4.43;;;;;;;;;;6181289;23;20048;-44
2023/08/29 09:39:38;;;;;;;9.73;4.70;;;;;;;;;;6172458;23;20024;-43
2023/08/29 09:42:06;;;;;;;8.77;4.38;;;;;;;;;;6159446;23;20645;-46
2023/08/29 09:44:38;;;;;;;11.20;4.40;;;;;;;;;;6179613;23;20021;-45
2023/08/29 09:47:06;;;;;;;12.20;4.75;;;;;;;;;;6175514;23;20016;-42
2023/08/29 09:49:42;;;;;;;11.55;5.10;;;;;;;;;;6177870;23;20012;-42
2023/08/29 09:52:10;;;;;;;10.05;4.68;;;;;;;;;;6168608;23;20351;-43
2023/08/29 09:54:43;;;;;;;8.73;4.40;;;;;;;;;;6167324;23;20020;-42
2023/08/29 09:57:13;;;;;;;7.30;3.27;;;;;;;;;;6182035;23;20020;-42
2023/08/29 09:59:42;;;;;;;10.05;3.47;;;;;;;;;;6154747;23;20434;-41
2023/08/29 10:02:11;;;;;;;10.80;4.13;;;;;;;;;;6170973;23;20023;-44
2023/08/29 10:04:42;;;;;;;7.50;3.50;;;;;;;;;;6149774;23;20091;-43
2023/08/29 10:07:13;;;;;;;7.63;3.63;;;;;;;;;;6160754;23;20020;-44
2023/08/29 10:10:03;;;;;;;7.93;3.27;;;;;;;;;;6173623;23;20074;-42
2023/08/29 10:12:34;;;;;;;7.72;3.25;;;;;;;;;;6128610;23;20047;-42
2023/08/29 10:15:03;;;;;;;9.85;3.38;;;;;;;;;;6161133;23;20028;-42
2023/08/29 10:17:32;;;;;;;7.28;3.40;;;;;;;;;;6151959;23;20052;-43
2023/08/29 10:20:04;;;;;;;7.55;3.13;;;;;;;;;;6163001;23;20016;-45
2023/08/29 10:22:53;;;;;;;8.40;3.20;;;;;;;;;;6154595;23;20043;-43
2023/08/29 10:25:25;;;;;;;9.38;3.03;;;;;;;;;;6166993;23;20017;-43
2023/08/29 10:27:56;;;;;;;8.35;3.13;;;;;;;;;;6162284;23;20368;-42
2023/08/29 10:30:25;;;;;;;8.82;2.83;;;;;;;;;;6159642;23;20071;-43
2023/08/29 10:32:53;;;;;;;7.90;2.95;;;;;;;;;;6157490;23;20444;-43
2023/08/29 10:35:22;;;;;;;6.30;2.63;;;;;;;;;;6131314;23;20082;-43
2023/08/29 10:37:51;;;;;;;8.93;2.97;;;;;;;;;;6161308;23;20021;-45
2023/08/29 10:40:20;;;;;;;13.27;2.78;;;;;;;;;;6163126;23;20462;-45
2023/08/29 10:42:57;;;;;;;6.45;2.97;;;;;;;;;;6167939;23;20027;-43
2023/08/29 10:45:40;;;;;;;5.88;2.22;;;;;;;;;;6147184;23;20455;-42
2023/08/29 10:48:07;;;;;;;8.90;2.47;;;;;;;;;;6171386;23;20017;-42
2023/08/29 10:50:37;;;;;;;7.15;2.90;;;;;;;;;;6166310;23;20021;-42
2023/08/29 10:53:06;;;;;;;6.43;2.63;;;;;;;;;;6181451;23;20012;-42
2023/08/29 10:55:57;;;;;;;6.22;2.30;;;;;;;;;;6145188;23;20021;-43
2023/08/29 10:58:34;;;;;;;8.82;2.40;;;;;;;;;;6173846;23;20016;-43
2023/08/29 11:01:01;;;;;;;8.73;2.10;;;;;;;;;;6183392;23;20013;-43
2023/08/29 11:03:45;;;;;;;6.47;2.75;;;;;;;;;;6169020;23;20017;-44
2023/08/29 11:06:26;;;;;;;6.53;2.15;;;;;;;;;;6181432;23;20070;-45
2023/08/29 11:09:08;;;;;;;6.65;2.60;;;;;;;;;;6184898;23;20100;-44
2023/08/29 11:11:36;;;;;;;6.97;2.58;;;;;;;;;;6174626;23;20111;-43
2023/08/29 11:14:06;;;;;;;6.63;2.10;;;;;;;;;;6183247;23;20016;-44
2023/08/29 11:16:36;;;;;;;6.93;2.65;;;;;;;;;;6174328;23;20308;-42
2023/08/29 11:19:08;;;;;;;7.65;2.58;;;;;;;;;;6170009;23;20075;-43
2023/08/29 11:21:35;;;;;;;6.43;2.90;;;;;;;;;;6165891;23;20352;-42
2023/08/29 11:24:05;;;;;;;7.65;2.53;;;;;;;;;;6181220;23;20026;-43
2023/08/29 11:26:44;;;;;;;6.20;2.60;;;;;;;;;;6174190;23;20023;-42
2023/08/29 11:29:13;;;;;;;8.88;2.40;;;;;;;;;;6187873;23;20051;-42
2023/08/29 11:31:42;;;;;;;6.43;2.65;;;;;;;;;;6164597;23;20070;-42
2023/08/29 11:34:14;;;;;;;6.90;2.60;;;;;;;;;;6176772;23;20020;-44
2023/08/29 11:36:46;;;;;;;7.00;2.40;;;;;;;;;;6170766;23;20027;-42
2023/08/29 11:39:14;;;;;;;7.10;2.20;;;;;;;;;;6123072;23;20264;-42
2023/08/29 11:42:03;;;;;;;6.15;2.38;;;;;;;;;;6181791;23;20582;-41
2023/08/29 11:44:53;;;;;;;5.97;2.05;;;;;;;;;;6175009;23;20131;-42
2023/08/29 11:47:41;;;;;;;6.15;1.75;;;;;;;;;;6183030;23;20016;-44
2023/08/29 11:50:11;;;;;;;7.43;2.55;;;;;;;;;;6163070;23;20087;-43
2023/08/29 11:52:39;;;;;;;5.33;2.03;;;;;;;;;;6162464;23;20021;-45
2023/08/29 11:55:10;;;;;;;6.85;2.50;;;;;;;;;;6171817;23;20019;-47
2023/08/29 11:57:42;;;;;;;9.77;2.35;;;;;;;;;;6175839;23;20016;-42
2023/08/29 12:00:12;;;;;;;8.70;2.50;;;;;;;;;;6173222;23;20016;-43
2023/08/29 12:02:43;;;;;;;14.13;2.85;;;;;;;;;;6170339;23;20017;-42
2023/08/29 12:05:12;;;;;;;8.43;2.47;;;;;;;;;;6181565;23;20048;-44
2023/08/29 12:07:41;;;;;;;7.70;2.13;;;;;;;;;;6168113;23;20017;-42
2023/08/29 12:10:10;;;;;;;6.22;1.83;;;;;;;;;;6181882;23;20032;-41
2023/08/29 12:12:39;;;;;;;14.13;3.53;;;;;;;;;;6172188;23;20128;-43
2023/08/29 12:15:10;;;;;;;7.63;2.72;;;;;;;;;;6184458;23;20013;-42
2023/08/29 12:17:41;;;;;;;7.87;2.00;;;;;;;;;;6183063;23;20021;-41
2023/08/29 12:20:29;;;;;;;7.28;2.13;;;;;;;;;;6171723;23;20012;-43
2023/08/29 12:22:58;;;;;;;6.82;2.28;;;;;;;;;;6171245;23;20024;-43
2023/08/29 12:25:26;;;;;;;8.00;2.13;;;;;;;;;;6179939;23;20044;-44
2023/08/29 12:27:57;;;;;;;7.10;2.33;;;;;;;;;;6175594;23;20435;-43
2023/08/29 12:30:25;;;;;;;5.23;1.63;;;;;;;;;;6109588;23;20467;-42
2023/08/29 12:33:04;;;;;;;11.20;3.15;;;;;;;;;;6152240;23;20040;-43
2023/08/29 12:35:32;;;;;;;6.72;2.70;;;;;;;;;;6179472;23;20100;-41
2023/08/29 12:38:00;;;;;;;10.13;3.05;;;;;;;;;;6167103;23;20651;-42
2023/08/29 12:40:27;;;;;;;15.23;2.80;;;;;;;;;;6177326;23;20080;-41
2023/08/29 12:42:57;;;;;;;8.20;2.60;;;;;;;;;;6175809;23;20040;-43
2023/08/29 12:45:25;;;;;;;9.98;3.00;;;;;;;;;;6162447;23;20025;-44
2023/08/29 12:47:52;;;;;;;10.38;2.72;;;;;;;;;;6179008;23;20403;-42
2023/08/29 12:50:22;;;;;;;7.85;2.50;;;;;;;;;;6174192;23;20021;-43
2023/08/29 12:52:51;;;;;;;8.18;3.05;;;;;;;;;;6173456;23;20027;-43
2023/08/29 12:55:19;;;;;;;7.03;2.83;;;;;;;;;;6178514;23;20020;-43
2023/08/29 12:57:49;;;;;;;8.05;2.97;;;;;;;;;;6173320;23;20024;-42
2023/08/29 13:00:18;;;;;;;6.78;1.88;;;;;;;;;;6174162;23;20082;-44
2023/08/29 13:02:45;;;;;;;8.65;2.72;;;;;;;;;;6171218;23;20095;-43
2023/08/29 13:05:14;;;;;;;7.90;2.72;;;;;;;;;;6183626;23;20023;-43
2023/08/29 13:07:44;;;;;;;6.93;2.97;;;;;;;;;;6155830;23;20453;-42
2023/08/29 13:10:12;;;;;;;9.93;3.35;;;;;;;;;;6193036;23;20447;-42
2023/08/29 13:12:41;;;;;;;6.35;3.20;;;;;;;;;;6168981;23;20017;-43
2023/08/29 13:15:16;;;;;;;8.13;2.97;;;;;;;;;;6145366;23;20392;-43
2023/08/29 13:17:46;;;;;;;6.25;2.50;;;;;;;;;;6185720;23;20025;-43
2023/08/29 13:20:14;;;;;;;9.57;2.80;;;;;;;;;;6178113;23;20411;-43
2023/08/29 13:22:44;;;;;;;8.02;2.80;;;;;;;;;;6183618;23;20031;-42
2023/08/29 13:25:19;;;;;;;7.10;3.03;;;;;;;;;;6191674;23;20017;-43
2023/08/29 13:27:55;;;;;;;11.15;2.72;;;;;;;;;;6193980;23;20050;-45
2023/08/29 13:30:25;;;;;;;6.55;2.60;;;;;;;;;;6188106;23;20016;-46
2023/08/29 13:32:54;;;;;;;11.23;3.07;;;;;;;;;;6159855;23;20016;-44
2023/08/29 13:35:24;;;;;;;9.77;3.10;;;;;;;;;;6177140;23;20443;-42
2023/08/29 13:37:53;;;;;;;8.15;2.83;;;;;;;;;;6182306;23;20036;-42
2023/08/29 13:40:21;;;;;;;7.82;2.90;;;;;;;;;;6178757;23;20016;-42
2023/08/29 13:42:49;;;;;;;8.20;2.90;;;;;;;;;;6181587;23;20027;-42
2023/08/29 13:45:17;;;;;;;9.23;2.57;;;;;;;;;;6170099;23;20035;-44
2023/08/29 13:47:58;;;;;;;11.43;3.50;;;;;;;;;;6160679;23;20099;-43
2023/08/29 13:50:29;;;;;;;11.20;3.92;;;;;;;;;;6084427;23;20024;-43
2023/08/29 13:52:58;;;;;;;7.00;3.28;;;;;;;;;;6140306;23;20016;-43
2023/08/29 13:55:26;;;;;;;7.38;3.33;;;;;;;;;;6160508;23;20410;-46
2023/08/29 13:57:54;;;;;;;6.40;2.60;;;;;;;;;;6163013;23;20016;-46
2023/08/29 14:00:22;;;;;;;8.75;2.72;;;;;;;;;;6155064;23;20017;-44
2023/08/29 14:02:50;;;;;;;9.35;2.92;;;;;;;;;;6163855;23;20016;-44
2023/08/29 14:05:18;;;;;;;8.75;2.30;;;;;;;;;;6161572;23;20116;-43
2023/08/29 14:07:46;;;;;;;8.20;2.75;;;;;;;;;;6155548;23;20070;-44
2023/08/29 14:10:15;;;;;;;9.87;2.77;;;;;;;;;;6165610;23;20023;-44
2023/08/29 14:12:43;;;;;;;9.27;2.75;;;;;;;;;;6163957;23;20021;-43
2023/08/29 14:15:10;;;;;;;8.48;2.90;;;;;;;;;;6166508;23;20027;-43
2023/08/29 14:17:39;;;;;;;9.38;2.60;;;;;;;;;;6145755;23;20381;-43
2023/08/29 14:20:08;;;;;;;7.68;2.58;;;;;;;;;;6167996;23;20020;-44
2023/08/29 14:22:35;;;;;;;7.90;2.53;;;;;;;;;;6143339;23;20436;-42
2023/08/29 14:25:03;;;;;;;7.35;2.72;;;;;;;;;;6168050;23;20017;-42
2023/08/29 14:27:32;;;;;;;7.90;2.90;;;;;;;;;;6169134;23;20016;-42
2023/08/29 14:30:00;;;;;;;8.65;2.83;;;;;;;;;;6166663;23;20079;-42
2023/08/29 14:32:27;;;;;;;8.75;2.67;;;;;;;;;;6171046;23;20017;-42
2023/08/29 14:34:55;;;;;;;7.87;2.60;;;;;;;;;;6154206;23;20103;-42
2023/08/29 14:37:23;;;;;;;8.63;2.70;;;;;;;;;;6151914;23;20024;-42
2023/08/29 14:39:50;;;;;;;6.43;2.70;;;;;;;;;;6139319;23;20431;-42
2023/08/29 14:42:19;;;;;;;7.20;3.20;;;;;;;;;;6169918;23;20072;-42
2023/08/29 14:44:48;;;;;;;6.45;2.42;;;;;;;;;;6136022;23;20020;-42
2023/08/29 14:47:16;;;;;;;7.50;2.73;;;;;;;;;;6122895;23;20423;-42
2023/08/29 14:49:44;;;;;;;7.82;2.63;;;;;;;;;;6168914;23;20078;-42
2023/08/29 14:52:12;;;;;;;6.50;2.72;;;;;;;;;;6148771;23;20017;-41
2023/08/29 14:54:39;;;;;;;7.25;2.17;;;;;;;;;;6144398;23;20028;-42